Terminal Aerodrome Forecast
Issued by NWS Sterling, VA

Home | Current Version | Previous Version | Text Only | Print | Product List | Glossary On
Versions: 1 2 3 4 5 6 7 8 9 10 11 12 13
705
FTUS41 KLWX 281731
TAFMRB
TAF
KMRB 281731Z 2818/2918 26005KT P6SM VCTS BKN040CB
     FM281900 32007KT P6SM +TSRA BKN040CB
     FM290300 VRB03KT 3SM TSRA OVC050CB
     FM290600 VRB03KT 3SM SHRA OVC045
     FM291200 31006KT P6SM -SHRA OVC060
     FM291500 32010KT P6SM BKN050=

USA.gov is the U.S. government's official web portal to all federal, state and local government web resources and services.